CUV weather

Casigua El Cubo Airport
Casigua El Cubo, Zulia, Venezuela

Public forecast

Using degrees Celsius for public forecast. Weather courtesy of forecast.io.

METAR (pilot weather report)

Report is more than 6 hours old.

Closest report is La Fria Airport, 34.9 nm (64.7 km) SSE. Retrieved 2017/09/20 18:00 UTC (1 year ago):

SVLF 201800Z 00000KT 9999 SCT040 XX/XX Q1010

TAF (pilot weather forecast)

Forecast is more than 12 hours old.

Closest forecast is Camilo Daza International Airport, 49.9 nm (92.4 km) S. Retrieved 2019/02/08 06:00 UTC (14 days ago):

TAF SKCC 080500Z 0806/0906 VRB02KT 8000 SCT020 BKN090 TEMPO 0809/0813 5000 BCFG SCT010 BECMG 0815/0817 36012KT 9999 NSW SCT023 SCT080 TX30/0819Z TN22/0811Z